This is the latest recevied weather packets stored in our database for station/object KD8OZS. If no packets are shown the sender has not sent any weather packets the latest 10 day(s).
| Time | Temp. | Humidity | Pressure | Rain* | Wind** | Luminosity | Snow |
|---|---|---|---|---|---|---|---|
| 1777341993 | 16.67° C | 76% | 1005.9 hPa | 0 mm | - | 0 W/m² | - |
| 1777341690 | 15.56° C | 83% | 1006.1 hPa | 0 mm | - | 0 W/m² | - |
| 1777341386 | 15.56° C | 85% | 1006.3 hPa | 0 mm | - | 0 W/m² | - |
| 1777341083 | 15.56° C | 88% | 1006.7 hPa | 0 mm | - | 0 W/m² | - |
| 1777340780 | 15.56° C | 87% | 1006.6 hPa | 0 mm | - | 0 W/m² | - |
| 1777340478 | 15.56° C | 90% | 1007 hPa | 0 mm | - | 0 W/m² | - |
| 1777340175 | 15.56° C | 89% | 1007.2 hPa | 0 mm | - | 0 W/m² | - |
| 1777339872 | 15.56° C | 87% | 1007 hPa | 1.78 mm | - | 0 W/m² | - |
| 1777339570 | 16.11° C | 86% | 1007.3 hPa | 1.78 mm | - | 0 W/m² | - |
| 1777339266 | 16.11° C | 84% | 1007.4 hPa | 0 mm | - | 0 W/m² | - |
| 1777338965 | 16.67° C | 84% | 1007.5 hPa | 0 mm | - | 0 W/m² | - |
| 1777338661 | 16.67° C | 83% | 1007.6 hPa | 0 mm | - | 0 W/m² | - |
| 1777338359 | 17.22° C | 82% | 1007.6 hPa | 0 mm | - | 0 W/m² | - |
| 1777338055 | 17.22° C | 79% | 1008 hPa | 0 mm | - | 0 W/m² | - |
| 1777337751 | 17.22° C | 77% | 1007.6 hPa | 0 mm | - | 0 W/m² | - |
| 1777337449 | 17.78° C | 77% | 1007.5 hPa | 0 mm | - | 0 W/m² | - |
| 1777337146 | 17.22° C | 78% | 1007.7 hPa | 0 mm | - | 0 W/m² | - |
| 1777336843 | 17.78° C | 79% | 1007.5 hPa | 0 mm | - | 0 W/m² | - |
| 1777336542 | 18.33° C | 76% | 1007.4 hPa | 0 mm | - | 0 W/m² | - |
| 1777336240 | 17.78° C | 77% | 1007.4 hPa | 0 mm | - | 0 W/m² | - |
| 1777335937 | 17.78° C | 77% | 1007.2 hPa | 0 mm | - | 0 W/m² | - |
| 1777335634 | 17.78° C | 76% | 1007.8 hPa | 0 mm | - | 0 W/m² | - |
| 1777335331 | 17.78° C | 77% | 1007.3 hPa | 0 mm | - | 0 W/m² | - |
| 1777335028 | 17.78° C | 76% | 1007.6 hPa | 0 mm | - | 0 W/m² | - |
| 1777334725 | 17.78° C | 76% | 1007.7 hPa | 0 mm | - | 0 W/m² | - |
* Rain latest hour (hover to see other rain measurements)
** Current wind speed in m/s (hover to see current wind gust speed)